createdAt,value
2023-05-31T00:00:28.276Z,93885.28
2023-05-31T00:05:35.465Z,93881.89
2023-05-31T00:10:42.982Z,93869.84
2023-05-31T00:15:49.762Z,93870.03
2023-05-31T00:20:56.677Z,93866.72
2023-05-31T00:26:03.813Z,93862.21
2023-05-31T00:31:11.109Z,93868.62
2023-05-31T00:36:18.132Z,93864.30
2023-05-31T00:41:25.118Z,93863.44
2023-05-31T00:46:40.845Z,93858.11
2023-05-31T00:51:48.449Z,93862.20
2023-05-31T00:56:56.430Z,93857.92
2023-05-31T01:02:05.907Z,93849.77
2023-05-31T01:07:13.301Z,93846.18
2023-05-31T01:12:30.834Z,93837.87
2023-05-31T01:17:46.674Z,93841.85
2023-05-31T01:23:04.250Z,93855.70
2023-05-31T01:28:13.146Z,93837.30
2023-05-31T01:33:22.226Z,93842.05
2023-05-31T01:38:29.224Z,93838.83
2023-05-31T01:43:39.896Z,93585.14
2023-05-31T01:48:49.150Z,93841.08
2023-05-31T01:53:56.459Z,93835.42
2023-05-31T01:59:04.418Z,93841.39
2023-05-31T02:04:11.209Z,93846.02
2023-05-31T02:09:18.374Z,93850.97
2023-05-31T02:14:25.573Z,93852.90
2023-05-31T02:19:33.063Z,93848.04
2023-05-31T02:24:41.304Z,93850.56
2023-05-31T02:29:52.093Z,93847.30
2023-05-31T02:34:59.238Z,93849.91
2023-05-31T02:40:10.713Z,93850.77
2023-05-31T02:45:17.879Z,93851.52
2023-05-31T02:50:24.741Z,93845.50
2023-05-31T02:55:31.581Z,93850.37
2023-05-31T03:00:48.227Z,93848.63
2023-05-31T03:05:55.764Z,93847.92
2023-05-31T03:11:03.183Z,93855.69
2023-05-31T03:16:10.760Z,93853.86
2023-05-31T03:21:17.958Z,93858.65
2023-05-31T03:26:25.001Z,93865.08
2023-05-31T03:31:32.006Z,93863.75
2023-05-31T03:36:39.340Z,93867.33
2023-05-31T03:41:46.384Z,93869.31
2023-05-31T03:46:53.352Z,93872.36
2023-05-31T03:52:00.823Z,93871.02
2023-05-31T03:57:08.457Z,93876.48
2023-05-31T04:02:15.542Z,93870.27
2023-05-31T04:07:22.716Z,93866.97
2023-05-31T04:12:29.637Z,93867.99
2023-05-31T04:17:36.685Z,93867.15
2023-05-31T04:22:43.733Z,93872.22
2023-05-31T04:27:50.852Z,93873.94
2023-05-31T04:32:58.507Z,93877.55
2023-05-31T04:38:06.610Z,93874.99
2023-05-31T04:43:13.708Z,93880.58
2023-05-31T04:48:21.051Z,93883.08
2023-05-31T04:53:28.243Z,93889.30
2023-05-31T04:58:35.199Z,93887.34
2023-05-31T05:03:42.094Z,93891.69
2023-05-31T05:08:49.842Z,93897.73
2023-05-31T05:13:56.671Z,93895.23
2023-05-31T05:19:03.488Z,93891.47
2023-05-31T05:24:10.313Z,93898.51
2023-05-31T05:29:17.879Z,93892.27
2023-05-31T05:34:24.783Z,93886.63
2023-05-31T05:39:31.742Z,93894.83
2023-05-31T05:44:39.152Z,93897.64
2023-05-31T05:49:45.993Z,93901.30
2023-05-31T05:54:52.957Z,93898.50
2023-05-31T06:00:05.427Z,93904.76
2023-05-31T06:05:12.306Z,93903.72
2023-05-31T06:10:19.309Z,93896.48
2023-05-31T06:15:26.126Z,93901.00
2023-05-31T06:20:33.347Z,93908.16
2023-05-31T06:25:40.278Z,93906.92
2023-05-31T06:30:47.648Z,93903.92
2023-05-31T06:35:54.852Z,93906.52
2023-05-31T06:41:01.991Z,93913.58
2023-05-31T06:46:10.901Z,93907.80
2023-05-31T06:51:19.618Z,93908.95
2023-05-31T06:56:28.106Z,93910.15
2023-05-31T07:01:35.107Z,93918.74
2023-05-31T07:06:42.311Z,93769.78
2023-05-31T07:11:49.301Z,93919.59
2023-05-31T07:16:56.493Z,93914.84
2023-05-31T07:22:03.526Z,93916.28
2023-05-31T07:27:11.454Z,93916.37
2023-05-31T07:32:18.918Z,93924.97
2023-05-31T07:37:26.019Z,93920.78
2023-05-31T07:42:34.657Z,93929.31
2023-05-31T07:47:41.902Z,93929.02
2023-05-31T07:52:52.933Z,93930.30
2023-05-31T07:58:00.352Z,93929.88
2023-05-31T08:03:07.842Z,93921.38
2023-05-31T08:08:14.849Z,93922.98
2023-05-31T08:13:22.035Z,93925.47
2023-05-31T08:18:29.084Z,93926.34
2023-05-31T08:23:36.679Z,93928.70
2023-05-31T08:28:43.714Z,93927.27
2023-05-31T08:34:01.598Z,93933.92
2023-05-31T08:39:10.379Z,93927.08
2023-05-31T08:44:20.267Z,93933.09
2023-05-31T08:49:29.212Z,93924.09
2023-05-31T08:54:37.842Z,93923.81
2023-05-31T08:59:46.248Z,93935.24
2023-05-31T09:04:54.329Z,93938.70
2023-05-31T09:10:03.062Z,93939.92
2023-05-31T09:15:12.024Z,93945.53
2023-05-31T09:20:20.211Z,93946.88
2023-05-31T09:25:27.393Z,93947.03
2023-05-31T09:30:34.362Z,93953.02
2023-05-31T09:35:43.082Z,93955.21
2023-05-31T09:40:52.174Z,93954.23
2023-05-31T09:45:59.365Z,93956.70
2023-05-31T09:51:11.395Z,93958.52
2023-05-31T09:56:27.007Z,93956.70
2023-05-31T10:01:36.250Z,93950.90
2023-05-31T10:06:43.484Z,93957.53
2023-05-31T10:11:53.608Z,93953.86
2023-05-31T10:17:04.327Z,93951.49
2023-05-31T10:22:12.893Z,93949.50
2023-05-31T10:27:34.736Z,93944.34
2023-05-31T10:32:55.419Z,93952.12
2023-05-31T10:38:15.552Z,93943.70
2023-05-31T10:43:44.839Z,93943.41
2023-05-31T10:49:02.713Z,93946.55
2023-05-31T10:54:10.559Z,93951.73
2023-05-31T10:59:21.369Z,93941.16
2023-05-31T11:04:29.128Z,93946.39
2023-05-31T11:09:36.258Z,93936.03
2023-05-31T11:14:43.121Z,93944.77
2023-05-31T11:19:56.482Z,93943.09
2023-05-31T11:25:04.907Z,93936.31
2023-05-31T11:30:16.697Z,93935.42
2023-05-31T11:35:24.924Z,93945.77
2023-05-31T11:40:33.386Z,93947.45
2023-05-31T11:45:46.360Z,93941.13
2023-05-31T11:50:54.044Z,93941.94
2023-05-31T11:56:01.396Z,93938.70
2023-05-31T12:01:09.167Z,93941.51
2023-05-31T12:06:17.373Z,93930.31
2023-05-31T12:11:24.477Z,93930.39
2023-05-31T12:16:31.756Z,93926.83
2023-05-31T12:21:39.052Z,93930.06
2023-05-31T12:26:49.720Z,93779.00
2023-05-31T12:32:07.605Z,93926.10
2023-05-31T12:37:15.966Z,93921.69
2023-05-31T12:42:23.368Z,93925.17
2023-05-31T12:47:30.324Z,93921.23
2023-05-31T12:52:41.411Z,93919.30
2023-05-31T12:57:48.369Z,93914.08
2023-05-31T13:02:55.472Z,93913.85
2023-05-31T13:08:02.925Z,93906.72
2023-05-31T13:13:13.009Z,93903.77
2023-05-31T13:18:20.146Z,93902.47
2023-05-31T13:23:27.651Z,93902.67
2023-05-31T13:28:34.998Z,93893.59
2023-05-31T13:33:42.125Z,93891.66
2023-05-31T13:38:51.332Z,93887.25
2023-05-31T13:43:58.323Z,93878.31
2023-05-31T13:49:05.805Z,93875.02
2023-05-31T13:54:12.590Z,93866.14
2023-05-31T13:59:19.878Z,93863.20
2023-05-31T14:04:27.476Z,93857.98
2023-05-31T14:09:35.114Z,93855.45
2023-05-31T14:14:42.701Z,93849.42
2023-05-31T14:19:49.681Z,93847.48
2023-05-31T14:24:56.493Z,93847.31
2023-05-31T14:30:04.932Z,93848.56
2023-05-31T14:35:13.278Z,93842.03
2023-05-31T14:40:20.760Z,93857.48
2023-05-31T14:45:27.966Z,93835.86
2023-05-31T14:50:35.644Z,93826.78
2023-05-31T14:55:43.150Z,93822.99
2023-05-31T15:00:50.231Z,93822.55
2023-05-31T15:05:57.257Z,93822.42
2023-05-31T15:11:04.517Z,93826.09
2023-05-31T15:16:11.844Z,93826.98
2023-05-31T15:21:18.983Z,93822.73
2023-05-31T15:26:26.186Z,93820.17
2023-05-31T15:31:33.076Z,93815.38
2023-05-31T15:36:40.193Z,93816.41
2023-05-31T15:41:47.649Z,93811.83
2023-05-31T15:46:54.899Z,93805.31
2023-05-31T15:52:01.867Z,93811.02
2023-05-31T15:57:09.083Z,93820.51
2023-05-31T16:02:16.808Z,93832.89
2023-05-31T16:07:24.757Z,93834.06
2023-05-31T16:12:32.061Z,93831.64
2023-05-31T16:17:40.705Z,93826.28
2023-05-31T16:22:47.586Z,93824.06
2023-05-31T16:27:54.438Z,93827.48
2023-05-31T16:33:01.787Z,93816.41
2023-05-31T16:38:09.603Z,93809.31
2023-05-31T16:43:16.550Z,93804.80
2023-05-31T16:48:23.811Z,93810.39
2023-05-31T16:53:31.135Z,93803.50
2023-05-31T16:58:38.508Z,93807.97
2023-05-31T17:03:46.296Z,93810.16
2023-05-31T17:08:53.200Z,93801.17
2023-05-31T17:14:00.139Z,93799.52
2023-05-31T17:19:07.403Z,93801.75
2023-05-31T17:24:14.436Z,93809.59
2023-05-31T17:29:21.354Z,93807.67
2023-05-31T17:34:28.299Z,93811.13
2023-05-31T17:39:36.775Z,93805.61
2023-05-31T17:44:44.039Z,93808.75
2023-05-31T17:49:50.917Z,93815.33
2023-05-31T17:54:58.005Z,93817.42
2023-05-31T18:00:06.383Z,93658.22
2023-05-31T18:05:14.383Z,93819.22
2023-05-31T18:10:21.628Z,93815.45
2023-05-31T18:15:28.446Z,93812.42
2023-05-31T18:20:35.616Z,93811.19
2023-05-31T18:25:42.597Z,93818.67
2023-05-31T18:30:49.806Z,93816.60
2023-05-31T18:35:56.667Z,93824.02
2023-05-31T18:41:04.176Z,93826.05
2023-05-31T18:46:11.380Z,93825.35
2023-05-31T18:51:18.311Z,93658.30
2023-05-31T18:56:25.162Z,93853.08
2023-05-31T19:01:32.201Z,93832.59
2023-05-31T19:06:39.241Z,93830.16
2023-05-31T19:11:47.783Z,93831.33
2023-05-31T19:16:55.774Z,93835.94
2023-05-31T19:22:02.987Z,93833.80
2023-05-31T19:27:10.214Z,93842.22
2023-05-31T19:32:17.194Z,93852.23
2023-05-31T19:37:24.064Z,93855.48
2023-05-31T19:42:31.123Z,93846.92
2023-05-31T19:47:38.044Z,93853.55
2023-05-31T19:52:50.857Z,93850.63
2023-05-31T19:57:57.973Z,93859.49
2023-05-31T20:03:05.313Z,93861.97
2023-05-31T20:08:13.631Z,93861.12
2023-05-31T20:13:20.659Z,93851.22
2023-05-31T20:18:27.860Z,93860.41
2023-05-31T20:23:35.596Z,93858.33
2023-05-31T20:28:42.984Z,93856.45
2023-05-31T20:33:49.967Z,93851.66
2023-05-31T20:38:58.444Z,93846.76
2023-05-31T20:44:06.663Z,93855.20
2023-05-31T20:49:13.549Z,93852.27
2023-05-31T20:54:21.638Z,93857.86
2023-05-31T20:59:30.654Z,93858.05
2023-05-31T21:04:37.776Z,93857.52
2023-05-31T21:09:45.026Z,93855.46
2023-05-31T21:14:53.796Z,93854.03
2023-05-31T21:20:01.087Z,93854.80
2023-05-31T21:25:08.964Z,93859.05
2023-05-31T21:30:16.292Z,93857.27
2023-05-31T21:35:23.305Z,93851.13
2023-05-31T21:40:30.837Z,93856.97
2023-05-31T21:45:37.739Z,93852.53
2023-05-31T21:50:44.909Z,93853.22
2023-05-31T21:55:51.787Z,93858.31
2023-05-31T22:00:59.058Z,93853.47
2023-05-31T22:06:06.466Z,93854.94
2023-05-31T22:11:14.011Z,93851.79
2023-05-31T22:16:22.763Z,93847.61
2023-05-31T22:21:31.234Z,93849.61
2023-05-31T22:26:39.087Z,93840.65
2023-05-31T22:31:46.330Z,93843.50
2023-05-31T22:36:53.522Z,93844.20
2023-05-31T22:42:00.711Z,93840.50
2023-05-31T22:47:08.408Z,93838.67
2023-05-31T22:52:15.791Z,93838.84
2023-05-31T22:57:23.229Z,93834.91
2023-05-31T23:02:30.235Z,93834.69
2023-05-31T23:07:39.564Z,93823.36
2023-05-31T23:12:48.617Z,93823.33
2023-05-31T23:17:56.491Z,93827.34
2023-05-31T23:23:03.530Z,93813.65
2023-05-31T23:28:10.525Z,93815.69
2023-05-31T23:33:17.988Z,93812.44
2023-05-31T23:38:25.462Z,93808.70
2023-05-31T23:43:32.418Z,93746.73
2023-05-31T23:48:39.972Z,93790.13
2023-05-31T23:53:47.520Z,93788.81
2023-05-31T23:58:54.904Z,93791.86
